Time;durP1;ratioP1;P1;durP2;ratioP2;P2;SDS_P1;SDS_P2;PMS_P1;PMS_P2;Temp;Humidity;BMP_temperature;BMP_pressure;BME280_temperature;BME280_humidity;BME280_pressure;Samples;Min_cycle;Max_cycle;Signal;HPM_P1;HPM_P2
2021/06/22 00:00:13;;;;;;;4.53;2.47;;;17.40;99.90;;;;;;6252997;28;20446;-79
2021/06/22 00:03:13;;;;;;;4.40;2.78;;;17.70;99.90;;;;;;6243069;28;20045;-79
2021/06/22 00:06:14;;;;;;;7.80;2.80;;;17.60;99.90;;;;;;6227547;28;20065;-80
2021/06/22 00:09:14;;;;;;;7.72;2.95;;;17.50;99.90;;;;;;6245967;28;20087;-80
2021/06/22 00:12:15;;;;;;;5.60;2.55;;;17.50;99.90;;;;;;6227397;28;20030;-80
2021/06/22 00:15:17;;;;;;;4.57;2.80;;;17.40;99.90;;;;;;6234593;28;20470;-81
2021/06/22 00:18:17;;;;;;;6.25;2.60;;;17.50;99.90;;;;;;6251971;28;20052;-79
2021/06/22 00:21:18;;;;;;;5.07;3.15;;;17.50;99.90;;;;;;6246916;28;20059;-78
2021/06/22 00:24:18;;;;;;;7.80;3.33;;;17.30;99.90;;;;;;6239952;28;20029;-79
2021/06/22 00:27:19;;;;;;;4.68;3.30;;;17.40;99.90;;;;;;6227606;28;20478;-79
2021/06/22 00:30:20;;;;;;;7.03;3.50;;;17.40;99.90;;;;;;6227185;28;20033;-79
2021/06/22 00:33:21;;;;;;;5.30;3.90;;;17.40;99.90;;;;;;6210704;28;20155;-79
2021/06/22 00:36:21;;;;;;;5.18;4.07;;;17.50;99.90;;;;;;6211311;28;20030;-79
2021/06/22 00:39:22;;;;;;;6.65;4.38;;;17.40;99.90;;;;;;6215558;28;20033;-79
2021/06/22 00:42:22;;;;;;;9.82;4.43;;;17.20;99.90;;;;;;6227007;28;20037;-79
2021/06/22 00:45:28;;;;;;;4.60;4.07;;;17.20;99.90;;;;;;6244742;28;20042;-79
2021/06/22 00:48:28;;;;;;;8.55;4.05;;;17.20;99.90;;;;;;6227323;28;20025;-79
2021/06/22 00:51:29;;;;;;;4.68;3.53;;;17.20;99.90;;;;;;6261130;28;20400;-78
2021/06/22 00:54:29;;;;;;;5.63;3.85;;;17.30;99.90;;;;;;6233776;28;20047;-79
2021/06/22 00:57:30;;;;;;;4.25;3.78;;;16.40;99.90;;;;;;6219111;28;20033;-79
2021/06/22 01:00:31;;;;;;;5.35;3.80;;;17.20;99.90;;;;;;6226717;28;20061;-79
2021/06/22 01:03:32;;;;;;;4.40;3.55;;;17.10;99.90;;;;;;6233461;28;20034;-79
2021/06/22 01:06:32;;;;;;;7.25;4.38;;;17.10;99.90;;;;;;6246493;28;20041;-79
2021/06/22 01:09:33;;;;;;;10.85;4.85;;;17.00;99.90;;;;;;6237102;28;20030;-79
2021/06/22 01:12:34;;;;;;;6.80;4.65;;;;;;;;;;6236698;28;20399;-78
2021/06/22 01:15:35;;;;;;;7.60;4.57;;;;;;;;;;6245395;28;20028;-78
2021/06/22 01:18:35;;;;;;;6.28;3.90;;;16.80;99.90;;;;;;6226100;28;20084;-79
2021/06/22 01:21:37;;;;;;;6.95;3.75;;;16.60;99.90;;;;;;6209806;28;20045;-79
2021/06/22 01:24:38;;;;;;;6.82;4.18;;;16.70;99.90;;;;;;6239268;28;20040;-80
2021/06/22 01:27:38;;;;;;;4.55;3.92;;;17.00;99.90;;;;;;6229202;28;20030;-79
2021/06/22 01:30:39;;;;;;;8.45;3.63;;;16.70;99.90;;;;;;6254843;28;20072;-82
2021/06/22 01:33:44;;;;;;;7.10;3.30;;;16.70;99.90;;;;;;6234100;28;20064;-78
2021/06/22 01:36:45;;;;;;;3.45;2.63;;;16.70;99.90;;;;;;6237390;28;20037;-78
2021/06/22 01:39:45;;;;;;;4.05;3.22;;;16.90;99.90;;;;;;6230089;28;20033;-79
2021/06/22 01:42:46;;;;;;;9.68;3.13;;;16.60;99.90;;;;;;6243080;28;20213;-79
2021/06/22 01:45:47;;;;;;;4.10;2.90;;;16.80;99.90;;;;;;6234267;28;20128;-81
2021/06/22 01:48:47;;;;;;;4.00;2.95;;;16.70;99.90;;;;;;6250751;28;20395;-78
2021/06/22 01:51:48;;;;;;;3.40;2.88;;;16.70;99.90;;;;;;6249881;28;20053;-79
2021/06/22 01:54:53;;;;;;;5.03;2.80;;;16.80;99.90;;;;;;6250204;28;20127;-79
2021/06/22 01:57:55;;;;;;;6.55;3.08;;;16.80;99.90;;;;;;6215690;28;20479;-78
2021/06/22 02:00:57;;;;;;;5.78;2.72;;;16.90;99.90;;;;;;6230833;28;20035;-78
2021/06/22 02:03:58;;;;;;;8.10;3.00;;;15.60;99.90;;;;;;6225624;28;20041;-78
2021/06/22 02:06:58;;;;;;;5.93;3.20;;;16.60;99.90;;;;;;6208747;28;20112;-79
2021/06/22 02:09:59;;;;;;;6.82;3.50;;;16.60;99.90;;;;;;6229143;28;20030;-79
2021/06/22 02:13:00;;;;;;;5.97;3.30;;;;;;;;;;6253539;28;20124;-79
2021/06/22 02:16:00;;;;;;;4.03;3.10;;;16.60;99.90;;;;;;6250475;28;20030;-79
2021/06/22 02:19:01;;;;;;;6.07;3.28;;;16.50;99.90;;;;;;6243132;28;20127;-82
2021/06/22 02:22:02;;;;;;;4.97;3.25;;;16.50;99.90;;;;;;6208956;28;20030;-79
2021/06/22 02:25:03;;;;;;;5.75;3.17;;;16.50;99.90;;;;;;6236834;28;20022;-78
2021/06/22 02:28:19;;;;;;;4.80;3.10;;;16.60;99.90;;;;;;6208859;28;20356;-79
2021/06/22 02:31:19;;;;;;;5.50;3.20;;;16.50;99.90;;;;;;6225052;28;20033;-80
2021/06/22 02:34:20;;;;;;;3.38;2.95;;;16.30;99.90;;;;;;6208751;28;20399;-82
2021/06/22 02:37:20;;;;;;;4.72;3.00;;;16.60;99.90;;;;;;6242562;28;20033;-78
2021/06/22 02:40:21;;;;;;;4.55;2.90;;;16.40;99.90;;;;;;6241351;28;20027;-79
2021/06/22 02:43:22;;;;;;;3.88;2.70;;;16.40;99.90;;;;;;6235939;28;20033;-80
2021/06/22 02:46:22;;;;;;;5.75;3.22;;;16.40;99.90;;;;;;6232225;28;20407;-79
2021/06/22 02:49:23;;;;;;;3.40;2.83;;;16.50;99.90;;;;;;6229940;28;20033;-78
2021/06/22 02:52:24;;;;;;;4.65;3.10;;;16.50;99.90;;;;;;6226730;28;20057;-78
2021/06/22 02:55:24;;;;;;;5.55;3.00;;;16.60;99.90;;;;;;6225134;28;20033;-79
2021/06/22 02:58:25;;;;;;;3.67;2.90;;;16.30;99.90;;;;;;6242346;28;20036;-78
2021/06/22 03:01:26;;;;;;;3.30;3.00;;;;;;;;;;6224823;28;20033;-79
2021/06/22 03:04:27;;;;;;;3.15;2.60;;;;;;;;;;6252101;28;20037;-80
2021/06/22 03:07:28;;;;;;;3.17;2.67;;;;;;;;;;6226039;28;20431;-79
2021/06/22 03:10:29;;;;;;;6.25;3.10;;;;;;;;;;6248820;28;20025;-80
2021/06/22 03:13:30;;;;;;;3.92;2.95;;;;;;;;;;6234150;28;20553;-78
2021/06/22 03:16:31;;;;;;;3.22;2.40;;;;;;;;;;6243412;28;20022;-79
2021/06/22 03:19:32;;;;;;;4.47;2.83;;;;;;;;;;6229138;28;20029;-79
2021/06/22 03:22:32;;;;;;;5.55;2.80;;;;;;;;;;6262206;28;20029;-78
2021/06/22 03:25:33;;;;;;;3.63;2.85;;;;;;;;;;6228911;28;20071;-79
2021/06/22 03:28:34;;;;;;;4.10;2.95;;;;;;;;;;6246734;28;20618;-81
2021/06/22 03:31:36;;;;;;;5.32;2.88;;;16.30;99.90;;;;;;6236321;28;20071;-79
2021/06/22 03:34:36;;;;;;;4.65;3.17;;;16.30;99.90;;;;;;6253635;28;20044;-78
2021/06/22 03:37:37;;;;;;;3.92;2.97;;;16.30;99.90;;;;;;6229254;28;20079;-78
2021/06/22 03:40:38;;;;;;;5.13;3.42;;;16.30;99.90;;;;;;6242815;28;20025;-80
2021/06/22 03:43:38;;;;;;;6.95;3.20;;;16.30;99.90;;;;;;6243110;28;20397;-78
2021/06/22 03:46:42;;;;;;;3.85;2.90;;;16.50;99.90;;;;;;6246576;28;20064;-80
2021/06/22 03:49:43;;;;;;;3.95;2.95;;;16.30;99.90;;;;;;6229007;28;20063;-79
2021/06/22 03:52:43;;;;;;;4.40;3.60;;;16.30;99.90;;;;;;6228142;28;20057;-78
2021/06/22 03:55:44;;;;;;;6.10;3.00;;;16.40;99.90;;;;;;6246420;28;20052;-79
2021/06/22 03:58:45;;;;;;;4.50;2.97;;;16.40;99.90;;;;;;6228490;28;20029;-79
2021/06/22 04:01:45;;;;;;;4.20;3.00;;;16.50;99.90;;;;;;6240305;28;20030;-79
2021/06/22 04:04:46;;;;;;;4.07;2.72;;;16.50;99.90;;;;;;6254508;28;20018;-82
2021/06/22 04:07:46;;;;;;;3.25;2.78;;;16.60;99.90;;;;;;6246235;28;20038;-79
2021/06/22 04:10:47;;;;;;;5.47;3.13;;;16.50;99.90;;;;;;6220769;28;20032;-78
2021/06/22 04:13:48;;;;;;;4.13;2.63;;;;;;;;;;6239694;28;20120;-79
2021/06/22 04:16:49;;;;;;;6.05;2.95;;;16.60;99.90;;;;;;6252077;28;20044;-81
2021/06/22 04:19:49;;;;;;;3.83;2.78;;;16.70;99.90;;;;;;6251279;28;20045;-79
2021/06/22 04:22:50;;;;;;;4.25;2.70;;;16.70;99.90;;;;;;6247730;28;20596;-78
2021/06/22 04:25:50;;;;;;;4.63;2.75;;;16.80;99.90;;;;;;6230300;28;20036;-79
2021/06/22 04:28:51;;;;;;;4.50;3.20;;;;;;;;;;6227997;28;20943;-79
2021/06/22 04:31:52;;;;;;;5.30;3.00;;;16.70;99.90;;;;;;6228093;28;20101;-79
2021/06/22 04:34:53;;;;;;;8.68;3.22;;;16.90;99.90;;;;;;6210659;28;20056;-79
2021/06/22 04:37:53;;;;;;;5.97;3.10;;;16.80;99.90;;;;;;6210826;28;20081;-79
2021/06/22 04:40:54;;;;;;;5.18;2.83;;;16.70;99.90;;;;;;6227098;28;20442;-78
2021/06/22 04:43:54;;;;;;;5.05;3.20;;;16.70;99.90;;;;;;6230658;28;20026;-78
2021/06/22 04:46:55;;;;;;;9.02;3.42;;;16.80;99.90;;;;;;6239896;28;20040;-79
2021/06/22 04:49:56;;;;;;;5.75;3.05;;;17.10;99.90;;;;;;6264360;28;20059;-82
2021/06/22 04:52:56;;;;;;;3.92;3.28;;;17.30;99.90;;;;;;6234784;28;20061;-80
2021/06/22 04:55:57;;;;;;;5.13;2.80;;;17.30;99.90;;;;;;6264903;28;20364;-79
2021/06/22 04:58:58;;;;;;;5.95;3.05;;;17.30;99.90;;;;;;6267547;28;20056;-79
2021/06/22 05:01:59;;;;;;;3.20;2.90;;;17.30;99.90;;;;;;6275953;28;20111;-80
2021/06/22 05:05:01;;;;;;;4.53;3.30;;;17.30;99.90;;;;;;6234901;28;20029;-79
2021/06/22 05:08:02;;;;;;;7.05;3.05;;;17.10;99.90;;;;;;6251794;28;20029;-80
2021/06/22 05:11:02;;;;;;;5.90;2.90;;;15.30;99.90;;;;;;6258619;28;20048;-77
2021/06/22 05:14:03;;;;;;;4.10;3.70;;;17.20;99.90;;;;;;6233372;28;20517;-82
2021/06/22 05:17:04;;;;;;;5.97;2.88;;;17.10;99.90;;;;;;6234448;28;20025;-77
2021/06/22 05:20:05;;;;;;;5.40;3.03;;;17.10;99.90;;;;;;6250759;28;20094;-77
2021/06/22 05:23:06;;;;;;;3.80;3.38;;;17.00;99.90;;;;;;6256887;28;20024;-80
2021/06/22 05:26:06;;;;;;;7.55;3.30;;;17.10;99.90;;;;;;6275359;28;20037;-81
2021/06/22 05:29:07;;;;;;;8.35;3.13;;;16.90;99.90;;;;;;6275502;28;20043;-81
2021/06/22 05:32:08;;;;;;;3.90;3.25;;;17.10;99.90;;;;;;6264864;28;20167;-82
2021/06/22 05:35:09;;;;;;;3.90;3.20;;;17.30;99.90;;;;;;6253614;28;20048;-82
2021/06/22 05:38:10;;;;;;;4.85;3.10;;;17.70;99.90;;;;;;6250341;28;20361;-79
2021/06/22 05:41:10;;;;;;;4.82;3.53;;;17.30;99.90;;;;;;6250373;28;20083;-78
2021/06/22 05:44:11;;;;;;;3.95;3.20;;;17.30;99.90;;;;;;6250615;28;20025;-78
2021/06/22 05:47:12;;;;;;;4.88;3.25;;;17.20;99.90;;;;;;6268424;28;20037;-76
2021/06/22 05:50:12;;;;;;;5.97;3.35;;;17.10;99.90;;;;;;6250467;28;20029;-76
2021/06/22 05:53:13;;;;;;;5.50;3.40;;;17.00;99.90;;;;;;6241962;28;20552;-77
2021/06/22 05:56:14;;;;;;;4.18;3.03;;;16.90;99.90;;;;;;6242717;28;20033;-77
2021/06/22 05:59:14;;;;;;;7.78;3.58;;;16.90;99.90;;;;;;6243583;28;20521;-81
2021/06/22 06:02:15;;;;;;;4.80;3.30;;;16.90;99.90;;;;;;6242300;28;20034;-82
2021/06/22 06:05:16;;;;;;;4.63;3.47;;;16.90;99.90;;;;;;6242779;28;20022;-79
2021/06/22 06:08:16;;;;;;;3.35;2.83;;;16.90;99.90;;;;;;6242295;28;20110;-79
2021/06/22 06:11:17;;;;;;;3.40;2.90;;;16.90;99.90;;;;;;6242019;28;20558;-79
2021/06/22 06:14:18;;;;;;;3.65;2.88;;;16.80;99.90;;;;;;6242409;28;20041;-78
2021/06/22 06:17:18;;;;;;;5.03;3.47;;;17.00;99.90;;;;;;6266682;28;20104;-79
2021/06/22 06:20:19;;;;;;;3.75;3.13;;;16.90;99.90;;;;;;6266396;28;20025;-79
2021/06/22 06:23:20;;;;;;;4.47;3.28;;;16.90;99.90;;;;;;6266603;28;20063;-78
2021/06/22 06:26:22;;;;;;;3.40;3.10;;;16.80;99.90;;;;;;6250142;28;20071;-79
2021/06/22 06:32:23;;;;;;;4.30;3.15;;;;;;;;;;6266717;28;20033;-82
2021/06/22 06:35:24;;;;;;;3.05;2.75;;;;;;;;;;6266557;28;20025;-80
2021/06/22 06:38:25;;;;;;;3.50;2.75;;;16.80;99.90;;;;;;6266390;28;20490;-78
2021/06/22 06:41:26;;;;;;;5.07;2.90;;;;;;;;;;6264452;28;20037;-80
2021/06/22 06:44:27;;;;;;;4.57;2.80;;;;;;;;;;6243173;28;20029;-78
2021/06/22 06:47:27;;;;;;;4.72;3.05;;;16.90;99.90;;;;;;6224789;28;20107;-78
2021/06/22 06:50:28;;;;;;;3.22;2.90;;;17.10;99.90;;;;;;6241604;28;20030;-78
2021/06/22 06:53:29;;;;;;;4.63;2.72;;;17.00;99.90;;;;;;6245398;28;20060;-78
2021/06/22 06:56:29;;;;;;;6.10;3.65;;;16.90;99.90;;;;;;6246844;28;20452;-84
2021/06/22 06:59:30;;;;;;;3.00;2.67;;;16.90;99.90;;;;;;6246113;28;20033;-78
2021/06/22 07:02:30;;;;;;;5.80;2.80;;;16.90;99.90;;;;;;6245867;28;20025;-78
2021/06/22 07:05:31;;;;;;;6.45;3.25;;;17.00;99.90;;;;;;6229773;28;20080;-78
2021/06/22 07:08:32;;;;;;;4.80;3.83;;;16.80;99.90;;;;;;6245906;28;20030;-79
2021/06/22 07:11:32;;;;;;;4.88;3.60;;;17.00;99.90;;;;;;6246227;28;20038;-79
2021/06/22 07:14:33;;;;;;;5.32;3.92;;;17.20;99.90;;;;;;6228854;28;20395;-79
2021/06/22 07:17:34;;;;;;;6.78;3.65;;;17.30;99.90;;;;;;6246035;28;20025;-79
2021/06/22 07:20:35;;;;;;;4.70;3.63;;;17.60;99.90;;;;;;6246024;28;20030;-83
2021/06/22 07:23:35;;;;;;;4.13;2.92;;;17.50;99.90;;;;;;6270203;28;20029;-79
2021/06/22 07:26:36;;;;;;;5.35;3.35;;;17.60;99.90;;;;;;6253724;28;20120;-79
2021/06/22 07:29:37;;;;;;;3.80;3.10;;;17.60;99.90;;;;;;6270393;28;20151;-79
2021/06/22 07:32:37;;;;;;;4.57;3.28;;;17.60;99.90;;;;;;6253123;28;20445;-78
2021/06/22 07:35:38;;;;;;;3.75;3.20;;;17.60;99.90;;;;;;6245437;28;20057;-79
2021/06/22 07:38:38;;;;;;;3.72;3.33;;;17.50;99.90;;;;;;6245424;28;20037;-80
2021/06/22 07:42:05;;;;;;;5.32;3.60;;;17.40;99.90;;;;;;6245122;28;20667;-78
2021/06/22 07:45:06;;;;;;;6.15;3.85;;;20.80;99.90;;;;;;6284907;28;20029;-79
2021/06/22 07:48:08;;;;;;;5.63;3.70;;;17.40;99.90;;;;;;6269930;28;20044;-79
2021/06/22 07:51:09;;;;;;;6.38;4.00;;;17.30;99.90;;;;;;6269505;28;20057;-80
2021/06/22 07:54:09;;;;;;;4.00;3.58;;;17.50;99.90;;;;;;6236415;28;20043;-78
2021/06/22 07:57:10;;;;;;;5.40;4.28;;;17.50;99.90;;;;;;6253271;28;20382;-79
2021/06/22 08:03:32;;;;;;;9.80;4.53;;;17.70;99.90;;;;;;6255116;28;20065;-79
2021/06/22 08:06:33;;;;;;;7.15;4.10;;;18.20;99.90;;;;;;6252805;28;20031;-79
2021/06/22 08:09:33;;;;;;;4.50;3.83;;;18.10;99.90;;;;;;6221847;28;20029;-79
2021/06/22 08:12:34;;;;;;;4.85;4.00;;;18.30;99.90;;;;;;6228040;28;20041;-79
2021/06/22 08:15:35;;;;;;;5.22;3.80;;;18.20;99.90;;;;;;6227769;28;20072;-79
2021/06/22 08:18:36;;;;;;;5.13;4.05;;;18.20;99.90;;;;;;6227896;28;20072;-79
2021/06/22 08:21:37;;;;;;;5.07;3.47;;;18.10;99.90;;;;;;6227907;28;20025;-79
2021/06/22 08:24:41;;;;;;;4.07;3.67;;;18.30;99.90;;;;;;6211365;28;20029;-79
2021/06/22 08:27:42;;;;;;;6.90;3.70;;;18.80;99.90;;;;;;6251715;28;20044;-79
2021/06/22 08:30:42;;;;;;;4.65;3.33;;;18.30;99.90;;;;;;6235442;28;20131;-79
2021/06/22 08:33:43;;;;;;;4.65;3.20;;;18.30;99.90;;;;;;6252073;28;20087;-79
2021/06/22 08:36:43;;;;;;;3.10;2.78;;;18.40;99.90;;;;;;6235876;28;20553;-79
2021/06/22 08:39:44;;;;;;;3.20;2.50;;;18.50;99.90;;;;;;6252176;28;20080;-79
2021/06/22 08:42:45;;;;;;;2.78;2.50;;;18.50;99.90;;;;;;6251518;28;20047;-82
2021/06/22 08:45:46;;;;;;;2.58;2.38;;;18.40;99.90;;;;;;6252077;28;20040;-79
2021/06/22 08:48:46;;;;;;;2.90;2.60;;;18.40;99.90;;;;;;6252097;28;20506;-79
2021/06/22 08:51:47;;;;;;;3.30;2.63;;;18.40;99.90;;;;;;6251675;28;20057;-79
2021/06/22 08:54:48;;;;;;;2.85;2.50;;;18.40;99.90;;;;;;6251276;28;20044;-79
2021/06/22 08:57:48;;;;;;;2.83;2.50;;;18.60;99.90;;;;;;6235195;28;20029;-79
2021/06/22 09:00:50;;;;;;;2.40;2.20;;;18.40;99.90;;;;;;6269072;28;20063;-79
2021/06/22 09:03:51;;;;;;;3.03;2.55;;;18.40;99.90;;;;;;6247190;28;20021;-79
2021/06/22 09:06:52;;;;;;;3.13;2.72;;;18.50;99.90;;;;;;6227320;28;20494;-83
2021/06/22 09:09:52;;;;;;;3.17;2.42;;;18.50;99.90;;;;;;6239805;28;20462;-79
2021/06/22 09:12:53;;;;;;;5.30;3.10;;;18.60;99.90;;;;;;6251148;28;20041;-79
2021/06/22 09:15:54;;;;;;;4.30;3.25;;;18.60;99.90;;;;;;6250213;28;20108;-80
2021/06/22 09:19:03;;;;;;;5.65;3.40;;;18.80;99.90;;;;;;6251261;28;20397;-79
2021/06/22 09:22:27;;;;;;;5.30;3.13;;;18.50;99.90;;;;;;6234487;28;20109;-79
2021/06/22 09:25:27;;;;;;;3.47;3.17;;;18.60;99.90;;;;;;6235076;28;20033;-79
2021/06/22 09:28:29;;;;;;;3.25;2.60;;;18.50;99.90;;;;;;6250532;28;20040;-79
2021/06/22 09:31:30;;;;;;;;;;;18.60;99.90;;;;;;6251494;28;20485;-79
2021/06/22 09:34:30;;;;;;;3.85;3.10;;;18.60;99.90;;;;;;6268378;28;19917;-79
2021/06/22 09:37:54;;;;;;;3.60;2.70;;;18.60;99.90;;;;;;6250892;28;20024;-79
2021/06/22 09:41:12;;;;;;;2.78;2.40;;;18.40;99.90;;;;;;6250421;28;20363;-79
2021/06/22 09:44:17;;;;;;;3.70;2.75;;;18.40;99.90;;;;;;6209691;28;20044;-79
2021/06/22 09:47:17;;;;;;;3.17;2.70;;;18.30;99.90;;;;;;6225857;28;20669;-79
2021/06/22 09:50:39;;;;;;;3.97;2.55;;;18.40;99.90;;;;;;6240251;28;20123;-79
2021/06/22 09:53:40;;;;;;;3.42;2.22;;;18.40;99.90;;;;;;6265472;28;20517;-79
2021/06/22 09:57:00;;;;;;;5.13;3.13;;;18.50;99.90;;;;;;6283723;28;20036;-79
2021/06/22 10:00:04;;;;;;;3.42;2.55;;;18.30;99.90;;;;;;6268467;28;20029;-79
2021/06/22 10:03:05;;;;;;;3.80;2.38;;;18.20;99.90;;;;;;6253088;28;20029;-79
2021/06/22 10:06:07;;;;;;;4.72;3.08;;;18.10;99.90;;;;;;6258870;28;20048;-81
2021/06/22 10:09:08;;;;;;;4.05;2.97;;;18.10;99.90;;;;;;6275562;28;20113;-79
2021/06/22 10:12:09;;;;;;;4.32;2.20;;;17.90;99.90;;;;;;6241755;28;20459;-79
2021/06/22 10:15:10;;;;;;;2.70;2.40;;;17.80;99.90;;;;;;6253508;28;20040;-79
2021/06/22 10:18:11;;;;;;;8.47;4.70;;;17.70;99.90;;;;;;6264699;28;20030;-79
2021/06/22 10:21:11;;;;;;;8.88;3.65;;;17.80;99.90;;;;;;6290871;28;20079;-83
2021/06/22 10:24:12;;;;;;;3.63;2.30;;;17.70;99.90;;;;;;6266565;28;20033;-80
2021/06/22 10:27:21;;;;;;;7.40;2.75;;;18.10;99.90;;;;;;6270541;28;20039;-79
2021/06/22 10:30:22;;;;;;;2.30;2.10;;;19.30;99.90;;;;;;6271499;28;20025;-79
2021/06/22 10:33:23;;;;;;;3.58;2.20;;;19.30;99.90;;;;;;6263704;28;20037;-81
2021/06/22 10:36:34;;;;;;;3.40;2.30;;;19.30;99.90;;;;;;6279374;28;20045;-79
2021/06/22 10:40:00;;;;;;;3.33;2.20;;;19.40;99.90;;;;;;6266413;28;20083;-77
2021/06/22 10:43:02;;;;;;;2.90;2.45;;;19.80;99.90;;;;;;6263137;28;20026;-79
2021/06/22 10:46:05;;;;;;;3.20;2.73;;;19.90;99.90;;;;;;6248153;28;20026;-79
2021/06/22 10:49:28;;;;;;;3.10;2.53;;;20.30;99.90;;;;;;6286746;28;20267;-79
2021/06/22 10:52:44;;;;;;;3.53;3.13;;;20.30;99.90;;;;;;6262722;28;20060;-80
2021/06/22 10:55:55;;;;;;;2.88;2.10;;;20.70;99.90;;;;;;6280368;28;20080;-79
2021/06/22 10:59:19;;;;;;;2.28;2.05;;;20.70;99.90;;;;;;6272491;28;20025;-78
2021/06/22 11:02:19;;;;;;;4.38;2.50;;;21.10;99.90;;;;;;6254019;28;20498;-80
2021/06/22 11:05:20;;;;;;;1.92;1.83;;;21.90;99.50;;;;;;6237655;28;20028;-80
2021/06/22 11:08:31;;;;;;;3.65;2.33;;;22.70;99.80;;;;;;6253850;28;20468;-80
2021/06/22 11:11:31;;;;;;;2.33;2.13;;;23.40;98.70;;;;;;6254161;28;20033;-79
2021/06/22 11:14:58;;;;;;;2.15;1.98;;;23.20;97.70;;;;;;6253927;28;20526;-80
2021/06/22 11:17:59;;;;;;;2.30;2.10;;;22.80;94.80;;;;;;6254980;28;20032;-80
2021/06/22 11:21:15;;;;;;;2.50;2.30;;;22.90;95.60;;;;;;6253344;28;20033;-79
2021/06/22 11:24:20;;;;;;;2.33;2.03;;;23.10;96.10;;;;;;6253794;28;20036;-79
2021/06/22 11:27:21;;;;;;;2.10;1.90;;;23.20;97.10;;;;;;6252544;28;20025;-79
2021/06/22 11:30:50;;;;;;;2.75;2.03;;;23.40;96.90;;;;;;6248792;28;20036;-80
2021/06/22 11:33:51;;;;;;;2.20;2.00;;;24.00;94.80;;;;;;6267692;28;20505;-79
2021/06/22 11:36:52;;;;;;;2.15;2.00;;;24.10;93.10;;;;;;6241573;28;20025;-79
2021/06/22 11:40:12;;;;;;;2.10;1.92;;;24.20;92.30;;;;;;6235300;28;20025;-79
2021/06/22 11:43:13;;;;;;;2.35;2.15;;;24.30;91.80;;;;;;6236529;28;20378;-79
2021/06/22 11:46:29;;;;;;;3.87;2.53;;;24.40;94.90;;;;;;6251950;28;20033;-80
2021/06/22 11:49:42;;;;;;;2.35;2.15;;;24.90;93.40;;;;;;6253668;28;20028;-79
2021/06/22 11:52:45;;;;;;;2.72;2.20;;;25.10;95.80;;;;;;6252542;28;20056;-80
2021/06/22 11:55:48;;;;;;;5.88;2.85;;;25.20;93.90;;;;;;6236261;28;20025;-80
2021/06/22 11:58:49;;;;;;;3.33;2.45;;;25.30;95.10;;;;;;6236871;28;20712;-80
2021/06/22 12:01:49;;;;;;;3.23;2.10;;;25.30;99.90;;;;;;6236533;28;20036;-79
2021/06/22 12:04:50;;;;;;;2.80;2.60;;;25.40;93.30;;;;;;6250992;28;20136;-81
2021/06/22 12:07:58;;;;;;;2.23;1.97;;;25.50;93.20;;;;;;6228322;28;20384;-80
2021/06/22 12:10:59;;;;;;;2.70;2.28;;;25.10;93.70;;;;;;6248668;28;20025;-80
2021/06/22 12:14:00;;;;;;;2.70;2.10;;;24.70;94.10;;;;;;6251682;28;20035;-79
2021/06/22 12:17:17;;;;;;;5.03;2.50;;;24.30;95.10;;;;;;6243735;28;20648;-80
2021/06/22 12:20:25;;;;;;;4.32;2.40;;;24.00;94.50;;;;;;6211644;28;20106;-77
2021/06/22 12:23:26;;;;;;;2.78;1.88;;;23.70;96.30;;;;;;6260452;28;20029;-78
2021/06/22 12:26:27;;;;;;;4.07;2.60;;;23.70;96.20;;;;;;6251699;28;20418;-79
2021/06/22 12:29:30;;;;;;;4.67;2.40;;;23.60;95.90;;;;;;6246590;28;20045;-77
2021/06/22 12:32:30;;;;;;;4.28;2.08;;;23.50;96.00;;;;;;6227925;28;20061;-77
2021/06/22 12:35:31;;;;;;;4.13;2.43;;;25.00;97.30;;;;;;6227673;28;20071;-81
2021/06/22 12:38:32;;;;;;;2.40;2.20;;;23.30;97.20;;;;;;6228247;28;20025;-83
2021/06/22 12:41:32;;;;;;;3.65;2.08;;;23.30;97.40;;;;;;6251916;28;20033;-79
2021/06/22 12:44:33;;;;;;;2.58;2.38;;;23.30;97.00;;;;;;6252309;28;20044;-79
2021/06/22 12:47:34;;;;;;;2.80;2.40;;;23.10;97.70;;;;;;6251993;28;20801;-79
2021/06/22 12:50:37;;;;;;;4.30;2.42;;;22.90;98.00;;;;;;6227773;28;20123;-79
2021/06/22 12:53:37;;;;;;;4.35;2.50;;;22.80;98.30;;;;;;6226891;28;20123;-82
2021/06/22 12:57:00;;;;;;;4.65;2.25;;;22.60;98.80;;;;;;6217575;28;20026;-79
2021/06/22 13:00:00;;;;;;;2.33;2.13;;;22.50;97.40;;;;;;6233953;28;20429;-78
2021/06/22 13:03:15;;;;;;;2.58;2.08;;;22.60;99.10;;;;;;6251198;28;20183;-78
2021/06/22 13:06:24;;;;;;;2.28;1.90;;;22.50;97.50;;;;;;6216812;28;20052;-79
2021/06/22 13:09:25;;;;;;;3.83;2.10;;;22.90;99.90;;;;;;6228396;28;20107;-83
2021/06/22 13:12:31;;;;;;;3.78;2.40;;;22.90;99.00;;;;;;6244747;28;20758;-83
2021/06/22 13:15:32;;;;;;;2.72;2.03;;;23.40;98.10;;;;;;6236799;28;20466;-82
2021/06/22 13:19:06;;;;;;;4.55;2.50;;;23.90;97.90;;;;;;6234588;28;20071;-78
2021/06/22 13:22:07;;;;;;;1.85;1.75;;;24.40;95.20;;;;;;6267358;28;20071;-79
2021/06/22 13:25:10;;;;;;;6.80;2.55;;;24.20;95.50;;;;;;6251250;28;20033;-82
2021/06/22 13:28:12;;;;;;;3.53;2.00;;;24.20;94.60;;;;;;6234728;28;20132;-79
2021/06/22 13:31:13;;;;;;;2.55;2.28;;;24.30;95.20;;;;;;6251107;28;20532;-82
2021/06/22 13:34:14;;;;;;;2.73;2.17;;;24.20;94.80;;;;;;6250534;28;20037;-80
2021/06/22 13:37:14;;;;;;;3.23;2.40;;;24.70;99.90;;;;;;6234374;28;20032;-79
2021/06/22 13:40:15;;;;;;;3.10;2.23;;;24.90;99.90;;;;;;6265050;28;20483;-78
2021/06/22 13:43:25;;;;;;;4.03;2.17;;;25.80;98.20;;;;;;6251019;28;20078;-80
2021/06/22 13:46:28;;;;;;;4.05;2.28;;;;;;;;;;6232023;28;20083;-79
2021/06/22 13:49:55;;;;;;;2.55;2.35;;;26.50;97.60;;;;;;6226009;28;20057;-81
2021/06/22 13:52:57;;;;;;;3.22;2.60;;;24.70;93.20;;;;;;6222460;28;20085;-81
2021/06/22 13:55:57;;;;;;;2.60;2.40;;;24.30;99.90;;;;;;6247919;28;20553;-82
2021/06/22 13:58:59;;;;;;;2.47;2.00;;;24.20;99.90;;;;;;6230819;28;20029;-83
2021/06/22 14:01:59;;;;;;;2.50;2.30;;;24.40;95.00;;;;;;6231322;28;20033;-83
2021/06/22 14:05:02;;;;;;;2.53;2.33;;;24.60;92.30;;;;;;6218239;28;20480;-82
2021/06/22 14:08:03;;;;;;;3.13;2.13;;;24.60;98.30;;;;;;6240880;28;20075;-83
2021/06/22 14:11:04;;;;;;;2.88;2.20;;;24.70;91.70;;;;;;6210123;28;20112;-83
2021/06/22 14:14:05;;;;;;;2.10;1.90;;;24.60;91.30;;;;;;6225272;28;20803;-82
2021/06/22 14:17:06;;;;;;;3.00;2.30;;;24.50;91.50;;;;;;6225364;28;20365;-83
2021/06/22 14:20:07;;;;;;;2.57;2.37;;;24.50;92.40;;;;;;6235127;28;20128;-83
2021/06/22 14:23:08;;;;;;;2.30;2.15;;;24.30;92.70;;;;;;6226652;28;20041;-85
2021/06/22 14:26:09;;;;;;;2.83;2.17;;;24.20;92.80;;;;;;6208453;28;20427;-86
2021/06/22 14:29:09;;;;;;;2.30;2.10;;;24.00;93.20;;;;;;6212394;28;20272;-82
2021/06/22 14:32:11;;;;;;;2.28;2.05;;;23.70;94.40;;;;;;6232826;28;20021;-84
2021/06/22 14:35:13;;;;;;;2.88;2.47;;;23.50;93.30;;;;;;6217807;28;20041;-84
2021/06/22 14:38:14;;;;;;;2.08;1.98;;;23.40;94.70;;;;;;6208477;28;20033;-84
2021/06/22 14:41:15;;;;;;;3.00;2.30;;;23.70;96.30;;;;;;6229953;28;20033;-83
2021/06/22 14:44:16;;;;;;;3.93;2.20;;;24.20;95.00;;;;;;6225147;28;20048;-81
2021/06/22 14:47:16;;;;;;;2.25;2.05;;;24.50;94.50;;;;;;6241771;28;20326;-83
2021/06/22 14:50:17;;;;;;;2.27;2.13;;;24.80;93.10;;;;;;6237401;28;20483;-83
2021/06/22 14:53:17;;;;;;;2.53;2.30;;;25.10;93.80;;;;;;6219470;28;20173;-82
2021/06/22 14:56:18;;;;;;;2.10;2.00;;;25.20;91.90;;;;;;6224714;28;20029;-83
2021/06/22 14:59:19;;;;;;;2.27;2.00;;;25.70;92.00;;;;;;6224520;28;20026;-82
2021/06/22 15:02:19;;;;;;;2.13;1.93;;;25.40;91.10;;;;;;6217886;28;20025;-81
2021/06/22 15:05:20;;;;;;;2.43;2.17;;;;;;;;;;6245865;28;20427;-82
2021/06/22 15:08:21;;;;;;;2.50;2.10;;;25.40;89.90;;;;;;6261598;28;20033;-81
2021/06/22 15:11:32;;;;;;;6.10;2.70;;;25.40;93.30;;;;;;6241520;28;20037;-81
2021/06/22 15:14:33;;;;;;;2.57;2.20;;;25.50;93.00;;;;;;6244434;28;20124;-82
2021/06/22 15:17:33;;;;;;;2.50;2.30;;;25.40;91.60;;;;;;6230737;28;20033;-82
2021/06/22 15:20:54;;;;;;;2.50;2.30;;;25.60;97.90;;;;;;6234134;28;20443;-83
2021/06/22 15:23:54;;;;;;;4.75;2.50;;;28.60;91.70;;;;;;6238534;28;20395;-84
2021/06/22 15:26:55;;;;;;;3.27;2.63;;;25.50;90.80;;;;;;6251789;28;20025;-81
2021/06/22 15:29:56;;;;;;;3.50;2.17;;;;;;;;;;6253570;28;20511;-84
2021/06/22 15:32:57;;;;;;;3.13;2.30;;;25.80;90.40;;;;;;6253595;28;20120;-80
2021/06/22 15:35:58;;;;;;;3.83;3.07;;;25.80;90.10;;;;;;6252513;28;20029;-80
2021/06/22 15:38:58;;;;;;;2.35;2.15;;;25.90;90.70;;;;;;6253384;28;20037;-83
2021/06/22 15:41:59;;;;;;;3.93;2.43;;;26.00;89.20;;;;;;6238360;28;20029;-83
2021/06/22 15:45:09;;;;;;;2.67;2.27;;;26.00;97.20;;;;;;6236805;28;20060;-82
2021/06/22 15:48:12;;;;;;;3.58;2.30;;;25.60;88.60;;;;;;6237271;28;20120;-83
2021/06/22 15:51:46;;;;;;;3.83;2.40;;;26.40;91.10;;;;;;6247673;28;20021;-82
2021/06/22 15:54:54;;;;;;;2.40;2.10;;;;;;;;;;6271558;28;20124;-83
2021/06/22 15:57:56;;;;;;;3.38;2.33;;;25.80;90.50;;;;;;6243113;28;20032;-81
2021/06/22 16:00:56;;;;;;;2.85;2.20;;;25.30;90.70;;;;;;6229082;28;20033;-82
2021/06/22 16:04:12;;;;;;;3.87;2.40;;;25.40;91.00;;;;;;6248408;28;20534;-87
2021/06/22 16:07:13;;;;;;;4.07;2.35;;;25.70;90.90;;;;;;6230543;28;20032;-81